sensor_id;sensor_type;location;lat;lon;timestamp;P1;durP1;ratioP1;P2;durP2;ratioP2
14100;SDS011;7127;49.372;8.166;2023-02-15T00:01:05;17.40;;;11.07;;
14100;SDS011;7127;49.372;8.166;2023-02-15T00:03:32;19.93;;;10.40;;
14100;SDS011;7127;49.372;8.166;2023-02-15T00:05:59;17.83;;;11.07;;
14100;SDS011;7127;49.372;8.166;2023-02-15T00:08:28;21.13;;;11.10;;
14100;SDS011;7127;49.372;8.166;2023-02-15T00:11:02;21.57;;;12.03;;
14100;SDS011;7127;49.372;8.166;2023-02-15T00:13:30;19.27;;;11.20;;
14100;SDS011;7127;49.372;8.166;2023-02-15T00:16:00;19.73;;;11.73;;
14100;SDS011;7127;49.372;8.166;2023-02-15T00:18:27;16.37;;;10.57;;
14100;SDS011;7127;49.372;8.166;2023-02-15T00:20:54;21.17;;;10.70;;
14100;SDS011;7127;49.372;8.166;2023-02-15T00:23:21;21.53;;;9.53;;
14100;SDS011;7127;49.372;8.166;2023-02-15T00:25:50;14.10;;;8.07;;
14100;SDS011;7127;49.372;8.166;2023-02-15T00:28:17;14.97;;;8.53;;
14100;SDS011;7127;49.372;8.166;2023-02-15T00:30:44;13.97;;;9.37;;
14100;SDS011;7127;49.372;8.166;2023-02-15T00:33:11;14.90;;;9.57;;
14100;SDS011;7127;49.372;8.166;2023-02-15T00:35:37;10.93;;;7.97;;
14100;SDS011;7127;49.372;8.166;2023-02-15T00:38:04;16.67;;;9.93;;
14100;SDS011;7127;49.372;8.166;2023-02-15T00:40:31;20.47;;;9.77;;
14100;SDS011;7127;49.372;8.166;2023-02-15T00:43:00;13.73;;;9.10;;
14100;SDS011;7127;49.372;8.166;2023-02-15T00:45:26;14.57;;;9.10;;
14100;SDS011;7127;49.372;8.166;2023-02-15T00:47:53;13.03;;;8.83;;
14100;SDS011;7127;49.372;8.166;2023-02-15T00:50:20;15.33;;;9.30;;
14100;SDS011;7127;49.372;8.166;2023-02-15T00:52:47;16.07;;;10.10;;
14100;SDS011;7127;49.372;8.166;2023-02-15T00:55:14;18.20;;;10.57;;
14100;SDS011;7127;49.372;8.166;2023-02-15T00:57:41;18.00;;;10.47;;
14100;SDS011;7127;49.372;8.166;2023-02-15T01:00:10;16.73;;;10.30;;
14100;SDS011;7127;49.372;8.166;2023-02-15T01:02:37;19.10;;;11.23;;
14100;SDS011;7127;49.372;8.166;2023-02-15T01:05:05;18.47;;;11.50;;
14100;SDS011;7127;49.372;8.166;2023-02-15T01:07:32;19.23;;;11.03;;
14100;SDS011;7127;49.372;8.166;2023-02-15T01:09:59;17.73;;;9.93;;
14100;SDS011;7127;49.372;8.166;2023-02-15T01:12:25;17.27;;;11.20;;
14100;SDS011;7127;49.372;8.166;2023-02-15T01:14:52;16.30;;;10.73;;
14100;SDS011;7127;49.372;8.166;2023-02-15T01:17:21;16.17;;;9.73;;
14100;SDS011;7127;49.372;8.166;2023-02-15T01:19:48;15.50;;;10.47;;
14100;SDS011;7127;49.372;8.166;2023-02-15T01:22:16;19.60;;;10.97;;
14100;SDS011;7127;49.372;8.166;2023-02-15T01:24:43;19.83;;;11.40;;
14100;SDS011;7127;49.372;8.166;2023-02-15T01:27:10;17.00;;;10.60;;
14100;SDS011;7127;49.372;8.166;2023-02-15T01:29:37;14.73;;;9.50;;
14100;SDS011;7127;49.372;8.166;2023-02-15T01:32:04;17.47;;;9.83;;
14100;SDS011;7127;49.372;8.166;2023-02-15T01:34:32;15.17;;;8.77;;
14100;SDS011;7127;49.372;8.166;2023-02-15T01:37:00;11.83;;;7.87;;
14100;SDS011;7127;49.372;8.166;2023-02-15T01:39:26;10.87;;;7.87;;
14100;SDS011;7127;49.372;8.166;2023-02-15T01:41:53;11.50;;;7.70;;
14100;SDS011;7127;49.372;8.166;2023-02-15T01:47:14;11.77;;;7.40;;
14100;SDS011;7127;49.372;8.166;2023-02-15T01:49:45;11.50;;;7.53;;
14100;SDS011;7127;49.372;8.166;2023-02-15T01:52:14;13.03;;;7.57;;
14100;SDS011;7127;49.372;8.166;2023-02-15T01:54:44;11.80;;;7.87;;
14100;SDS011;7127;49.372;8.166;2023-02-15T01:57:13;12.83;;;7.87;;
14100;SDS011;7127;49.372;8.166;2023-02-15T01:59:44;11.70;;;8.03;;
14100;SDS011;7127;49.372;8.166;2023-02-15T02:02:13;10.47;;;7.23;;
14100;SDS011;7127;49.372;8.166;2023-02-15T02:04:44;11.93;;;7.67;;
14100;SDS011;7127;49.372;8.166;2023-02-15T02:07:16;14.20;;;7.67;;
14100;SDS011;7127;49.372;8.166;2023-02-15T02:09:45;11.47;;;7.87;;
14100;SDS011;7127;49.372;8.166;2023-02-15T02:12:13;11.17;;;7.83;;
14100;SDS011;7127;49.372;8.166;2023-02-15T02:14:41;12.20;;;8.03;;
14100;SDS011;7127;49.372;8.166;2023-02-15T02:17:11;13.77;;;8.93;;
14100;SDS011;7127;49.372;8.166;2023-02-15T02:20:12;12.27;;;8.80;;
14100;SDS011;7127;49.372;8.166;2023-02-15T02:23:02;12.50;;;8.50;;
14100;SDS011;7127;49.372;8.166;2023-02-15T02:25:41;13.93;;;8.37;;
14100;SDS011;7127;49.372;8.166;2023-02-15T02:28:43;11.47;;;7.33;;
14100;SDS011;7127;49.372;8.166;2023-02-15T02:31:42;13.27;;;7.60;;
14100;SDS011;7127;49.372;8.166;2023-02-15T02:34:21;10.80;;;6.73;;
14100;SDS011;7127;49.372;8.166;2023-02-15T02:36:55;12.33;;;7.87;;
14100;SDS011;7127;49.372;8.166;2023-02-15T02:39:28;10.90;;;7.73;;
14100;SDS011;7127;49.372;8.166;2023-02-15T02:42:05;11.30;;;8.00;;
14100;SDS011;7127;49.372;8.166;2023-02-15T02:44:39;13.00;;;9.00;;
14100;SDS011;7127;49.372;8.166;2023-02-15T02:47:10;14.27;;;8.17;;
14100;SDS011;7127;49.372;8.166;2023-02-15T02:49:43;10.57;;;7.20;;
14100;SDS011;7127;49.372;8.166;2023-02-15T02:55:08;11.20;;;7.50;;
14100;SDS011;7127;49.372;8.166;2023-02-15T02:57:40;12.57;;;7.93;;
14100;SDS011;7127;49.372;8.166;2023-02-15T03:00:13;14.43;;;8.70;;
14100;SDS011;7127;49.372;8.166;2023-02-15T03:02:42;11.93;;;7.80;;
14100;SDS011;7127;49.372;8.166;2023-02-15T03:05:14;11.10;;;7.70;;
14100;SDS011;7127;49.372;8.166;2023-02-15T03:07:45;12.87;;;7.93;;
14100;SDS011;7127;49.372;8.166;2023-02-15T03:10:15;11.70;;;7.63;;
14100;SDS011;7127;49.372;8.166;2023-02-15T03:12:43;10.10;;;7.23;;
14100;SDS011;7127;49.372;8.166;2023-02-15T03:15:12;11.13;;;7.90;;
14100;SDS011;7127;49.372;8.166;2023-02-15T03:17:45;10.83;;;7.47;;
14100;SDS011;7127;49.372;8.166;2023-02-15T03:20:18;11.50;;;8.20;;
14100;SDS011;7127;49.372;8.166;2023-02-15T03:22:50;10.13;;;7.03;;
14100;SDS011;7127;49.372;8.166;2023-02-15T03:25:22;9.70;;;7.17;;
14100;SDS011;7127;49.372;8.166;2023-02-15T03:27:52;9.07;;;6.83;;
14100;SDS011;7127;49.372;8.166;2023-02-15T03:30:21;10.17;;;6.77;;
14100;SDS011;7127;49.372;8.166;2023-02-15T03:32:50;12.17;;;7.20;;
14100;SDS011;7127;49.372;8.166;2023-02-15T03:35:21;9.20;;;6.70;;
14100;SDS011;7127;49.372;8.166;2023-02-15T03:37:51;10.20;;;6.67;;
14100;SDS011;7127;49.372;8.166;2023-02-15T03:40:22;8.87;;;6.40;;
14100;SDS011;7127;49.372;8.166;2023-02-15T03:43:11;9.50;;;7.10;;
14100;SDS011;7127;49.372;8.166;2023-02-15T03:45:40;7.87;;;5.87;;
14100;SDS011;7127;49.372;8.166;2023-02-15T03:48:19;8.70;;;6.03;;
14100;SDS011;7127;49.372;8.166;2023-02-15T03:50:51;9.93;;;6.30;;
14100;SDS011;7127;49.372;8.166;2023-02-15T03:53:39;9.17;;;6.57;;
14100;SDS011;7127;49.372;8.166;2023-02-15T03:56:07;9.17;;;6.27;;
14100;SDS011;7127;49.372;8.166;2023-02-15T03:58:34;9.10;;;7.07;;
14100;SDS011;7127;49.372;8.166;2023-02-15T04:01:20;7.60;;;5.87;;
14100;SDS011;7127;49.372;8.166;2023-02-15T04:04:24;8.80;;;6.33;;
14100;SDS011;7127;49.372;8.166;2023-02-15T04:06:55;8.40;;;5.67;;
14100;SDS011;7127;49.372;8.166;2023-02-15T04:09:23;8.63;;;6.50;;
14100;SDS011;7127;49.372;8.166;2023-02-15T04:12:07;8.80;;;6.50;;
14100;SDS011;7127;49.372;8.166;2023-02-15T04:14:34;8.53;;;5.97;;
14100;SDS011;7127;49.372;8.166;2023-02-15T04:17:19;9.13;;;6.13;;
14100;SDS011;7127;49.372;8.166;2023-02-15T04:19:46;8.37;;;5.80;;
14100;SDS011;7127;49.372;8.166;2023-02-15T04:22:31;8.23;;;5.50;;
14100;SDS011;7127;49.372;8.166;2023-02-15T04:25:16;7.30;;;5.37;;
14100;SDS011;7127;49.372;8.166;2023-02-15T04:27:45;9.40;;;6.70;;
14100;SDS011;7127;49.372;8.166;2023-02-15T04:30:14;9.47;;;6.63;;
14100;SDS011;7127;49.372;8.166;2023-02-15T04:32:43;7.90;;;6.23;;
14100;SDS011;7127;49.372;8.166;2023-02-15T04:35:10;6.60;;;5.57;;
14100;SDS011;7127;49.372;8.166;2023-02-15T04:37:39;8.37;;;5.97;;
14100;SDS011;7127;49.372;8.166;2023-02-15T04:40:07;8.33;;;5.80;;
14100;SDS011;7127;49.372;8.166;2023-02-15T04:42:35;7.90;;;5.83;;
14100;SDS011;7127;49.372;8.166;2023-02-15T04:45:02;7.93;;;5.63;;
14100;SDS011;7127;49.372;8.166;2023-02-15T04:47:29;5.67;;;4.57;;
14100;SDS011;7127;49.372;8.166;2023-02-15T04:49:56;7.17;;;5.40;;
14100;SDS011;7127;49.372;8.166;2023-02-15T04:52:23;10.40;;;5.47;;
14100;SDS011;7127;49.372;8.166;2023-02-15T04:54:51;5.37;;;4.47;;
14100;SDS011;7127;49.372;8.166;2023-02-15T04:57:18;6.83;;;4.47;;
14100;SDS011;7127;49.372;8.166;2023-02-15T04:59:45;5.70;;;4.57;;
14100;SDS011;7127;49.372;8.166;2023-02-15T05:02:12;4.90;;;4.37;;
14100;SDS011;7127;49.372;8.166;2023-02-15T05:04:39;5.33;;;4.10;;
14100;SDS011;7127;49.372;8.166;2023-02-15T05:07:06;5.93;;;4.43;;
14100;SDS011;7127;49.372;8.166;2023-02-15T05:09:33;5.93;;;4.43;;
14100;SDS011;7127;49.372;8.166;2023-02-15T05:12:01;5.33;;;4.13;;
14100;SDS011;7127;49.372;8.166;2023-02-15T05:14:28;4.63;;;4.13;;
14100;SDS011;7127;49.372;8.166;2023-02-15T05:16:55;5.77;;;4.50;;
14100;SDS011;7127;49.372;8.166;2023-02-15T05:19:23;7.27;;;4.63;;
14100;SDS011;7127;49.372;8.166;2023-02-15T05:21:50;5.00;;;4.33;;
14100;SDS011;7127;49.372;8.166;2023-02-15T05:24:17;5.60;;;4.70;;
14100;SDS011;7127;49.372;8.166;2023-02-15T05:27:02;5.90;;;4.40;;
14100;SDS011;7127;49.372;8.166;2023-02-15T05:29:47;4.97;;;4.33;;
14100;SDS011;7127;49.372;8.166;2023-02-15T05:32:15;7.10;;;4.37;;
14100;SDS011;7127;49.372;8.166;2023-02-15T05:34:42;5.50;;;4.63;;
14100;SDS011;7127;49.372;8.166;2023-02-15T05:37:08;5.80;;;4.60;;
14100;SDS011;7127;49.372;8.166;2023-02-15T05:39:35;5.97;;;4.83;;
14100;SDS011;7127;49.372;8.166;2023-02-15T05:42:03;5.83;;;4.43;;
14100;SDS011;7127;49.372;8.166;2023-02-15T05:44:30;5.03;;;4.13;;
14100;SDS011;7127;49.372;8.166;2023-02-15T05:46:57;6.40;;;4.80;;
14100;SDS011;7127;49.372;8.166;2023-02-15T05:49:24;6.00;;;4.67;;
14100;SDS011;7127;49.372;8.166;2023-02-15T05:51:51;5.90;;;5.03;;
14100;SDS011;7127;49.372;8.166;2023-02-15T05:54:17;5.63;;;4.47;;
14100;SDS011;7127;49.372;8.166;2023-02-15T05:56:45;5.53;;;4.63;;
14100;SDS011;7127;49.372;8.166;2023-02-15T05:59:13;7.63;;;4.33;;
14100;SDS011;7127;49.372;8.166;2023-02-15T06:01:40;6.07;;;4.90;;
14100;SDS011;7127;49.372;8.166;2023-02-15T06:04:07;6.10;;;5.07;;
14100;SDS011;7127;49.372;8.166;2023-02-15T06:06:34;6.33;;;5.23;;
14100;SDS011;7127;49.372;8.166;2023-02-15T06:09:01;5.57;;;4.60;;
14100;SDS011;7127;49.372;8.166;2023-02-15T06:11:28;5.40;;;4.60;;
14100;SDS011;7127;49.372;8.166;2023-02-15T06:13:55;5.60;;;4.67;;
14100;SDS011;7127;49.372;8.166;2023-02-15T06:16:23;6.60;;;4.80;;
14100;SDS011;7127;49.372;8.166;2023-02-15T06:18:50;5.83;;;4.50;;
14100;SDS011;7127;49.372;8.166;2023-02-15T06:21:16;4.97;;;4.10;;
14100;SDS011;7127;49.372;8.166;2023-02-15T06:23:43;5.90;;;5.00;;
14100;SDS011;7127;49.372;8.166;2023-02-15T06:26:10;4.87;;;4.07;;
14100;SDS011;7127;49.372;8.166;2023-02-15T06:28:37;6.00;;;4.50;;
14100;SDS011;7127;49.372;8.166;2023-02-15T06:31:06;6.17;;;4.80;;
14100;SDS011;7127;49.372;8.166;2023-02-15T06:33:34;5.43;;;4.37;;
14100;SDS011;7127;49.372;8.166;2023-02-15T06:36:01;4.87;;;4.37;;
14100;SDS011;7127;49.372;8.166;2023-02-15T06:38:28;5.43;;;4.60;;
14100;SDS011;7127;49.372;8.166;2023-02-15T06:40:55;5.83;;;4.57;;
14100;SDS011;7127;49.372;8.166;2023-02-15T06:43:22;5.23;;;4.57;;
14100;SDS011;7127;49.372;8.166;2023-02-15T06:45:48;5.33;;;4.37;;
14100;SDS011;7127;49.372;8.166;2023-02-15T06:48:15;5.37;;;4.70;;
14100;SDS011;7127;49.372;8.166;2023-02-15T06:50:43;5.63;;;4.67;;
14100;SDS011;7127;49.372;8.166;2023-02-15T06:53:10;5.17;;;4.10;;
14100;SDS011;7127;49.372;8.166;2023-02-15T06:55:37;5.73;;;3.97;;
14100;SDS011;7127;49.372;8.166;2023-02-15T06:58:04;4.87;;;3.87;;
14100;SDS011;7127;49.372;8.166;2023-02-15T07:00:31;4.97;;;4.17;;
14100;SDS011;7127;49.372;8.166;2023-02-15T07:02:58;6.20;;;4.20;;
14100;SDS011;7127;49.372;8.166;2023-02-15T07:05:25;5.73;;;4.00;;
14100;SDS011;7127;49.372;8.166;2023-02-15T07:07:57;5.73;;;4.60;;
14100;SDS011;7127;49.372;8.166;2023-02-15T07:10:24;4.90;;;3.80;;
14100;SDS011;7127;49.372;8.166;2023-02-15T07:12:52;5.57;;;4.63;;
14100;SDS011;7127;49.372;8.166;2023-02-15T07:15:18;6.83;;;5.10;;
14100;SDS011;7127;49.372;8.166;2023-02-15T07:17:47;5.57;;;4.50;;
14100;SDS011;7127;49.372;8.166;2023-02-15T07:20:15;6.33;;;4.60;;
14100;SDS011;7127;49.372;8.166;2023-02-15T07:22:44;5.53;;;4.60;;
14100;SDS011;7127;49.372;8.166;2023-02-15T07:25:12;5.50;;;4.40;;
14100;SDS011;7127;49.372;8.166;2023-02-15T07:27:40;5.03;;;4.10;;
14100;SDS011;7127;49.372;8.166;2023-02-15T07:30:09;5.47;;;4.27;;
14100;SDS011;7127;49.372;8.166;2023-02-15T07:32:37;5.23;;;4.67;;
14100;SDS011;7127;49.372;8.166;2023-02-15T07:35:24;5.50;;;4.60;;
14100;SDS011;7127;49.372;8.166;2023-02-15T07:37:51;6.10;;;4.80;;
14100;SDS011;7127;49.372;8.166;2023-02-15T07:40:20;7.03;;;4.67;;
14100;SDS011;7127;49.372;8.166;2023-02-15T07:42:48;7.37;;;5.07;;
14100;SDS011;7127;49.372;8.166;2023-02-15T07:45:18;5.87;;;4.77;;
14100;SDS011;7127;49.372;8.166;2023-02-15T07:47:44;5.63;;;4.30;;
14100;SDS011;7127;49.372;8.166;2023-02-15T07:50:11;6.30;;;5.40;;
14100;SDS011;7127;49.372;8.166;2023-02-15T07:52:38;7.10;;;4.43;;
14100;SDS011;7127;49.372;8.166;2023-02-15T07:55:05;5.03;;;4.10;;
14100;SDS011;7127;49.372;8.166;2023-02-15T07:57:35;7.27;;;5.10;;
14100;SDS011;7127;49.372;8.166;2023-02-15T08:00:02;6.93;;;5.63;;
14100;SDS011;7127;49.372;8.166;2023-02-15T08:02:29;6.50;;;5.13;;
14100;SDS011;7127;49.372;8.166;2023-02-15T08:04:56;5.20;;;4.23;;
14100;SDS011;7127;49.372;8.166;2023-02-15T08:07:24;5.03;;;4.47;;
14100;SDS011;7127;49.372;8.166;2023-02-15T08:09:51;5.43;;;4.80;;
14100;SDS011;7127;49.372;8.166;2023-02-15T08:12:18;6.10;;;4.83;;
14100;SDS011;7127;49.372;8.166;2023-02-15T08:14:47;6.10;;;4.90;;
14100;SDS011;7127;49.372;8.166;2023-02-15T08:17:14;6.20;;;5.17;;
14100;SDS011;7127;49.372;8.166;2023-02-15T08:19:41;5.67;;;4.77;;
14100;SDS011;7127;49.372;8.166;2023-02-15T08:22:10;5.70;;;5.00;;
14100;SDS011;7127;49.372;8.166;2023-02-15T08:24:40;6.27;;;5.40;;
14100;SDS011;7127;49.372;8.166;2023-02-15T08:27:08;6.00;;;4.93;;
14100;SDS011;7127;49.372;8.166;2023-02-15T08:29:36;7.10;;;5.40;;
14100;SDS011;7127;49.372;8.166;2023-02-15T08:32:06;5.93;;;5.00;;
14100;SDS011;7127;49.372;8.166;2023-02-15T08:34:35;7.23;;;5.60;;
14100;SDS011;7127;49.372;8.166;2023-02-15T08:37:03;6.50;;;5.03;;
14100;SDS011;7127;49.372;8.166;2023-02-15T08:39:30;6.87;;;5.60;;
14100;SDS011;7127;49.372;8.166;2023-02-15T08:41:58;6.30;;;4.70;;
14100;SDS011;7127;49.372;8.166;2023-02-15T08:44:24;6.60;;;5.40;;
14100;SDS011;7127;49.372;8.166;2023-02-15T08:46:51;7.70;;;5.77;;
14100;SDS011;7127;49.372;8.166;2023-02-15T08:49:21;7.47;;;5.80;;
14100;SDS011;7127;49.372;8.166;2023-02-15T08:51:49;8.27;;;6.47;;
14100;SDS011;7127;49.372;8.166;2023-02-15T08:54:16;7.10;;;5.70;;
14100;SDS011;7127;49.372;8.166;2023-02-15T08:56:45;6.10;;;5.23;;
14100;SDS011;7127;49.372;8.166;2023-02-15T08:59:13;7.70;;;5.93;;
14100;SDS011;7127;49.372;8.166;2023-02-15T09:01:41;7.37;;;5.73;;
14100;SDS011;7127;49.372;8.166;2023-02-15T09:04:08;8.03;;;5.97;;
14100;SDS011;7127;49.372;8.166;2023-02-15T09:06:37;9.20;;;5.93;;
14100;SDS011;7127;49.372;8.166;2023-02-15T09:09:04;7.13;;;6.20;;
14100;SDS011;7127;49.372;8.166;2023-02-15T09:11:33;8.07;;;6.37;;
14100;SDS011;7127;49.372;8.166;2023-02-15T09:14:02;7.97;;;5.80;;
14100;SDS011;7127;49.372;8.166;2023-02-15T09:16:31;7.33;;;5.93;;
14100;SDS011;7127;49.372;8.166;2023-02-15T09:18:59;7.47;;;5.70;;
14100;SDS011;7127;49.372;8.166;2023-02-15T09:21:29;9.47;;;5.87;;
14100;SDS011;7127;49.372;8.166;2023-02-15T09:23:58;8.27;;;6.50;;
14100;SDS011;7127;49.372;8.166;2023-02-15T09:26:27;7.07;;;5.43;;
14100;SDS011;7127;49.372;8.166;2023-02-15T09:28:56;6.47;;;5.37;;
14100;SDS011;7127;49.372;8.166;2023-02-15T09:31:24;8.03;;;5.93;;
14100;SDS011;7127;49.372;8.166;2023-02-15T09:33:52;7.97;;;6.30;;
14100;SDS011;7127;49.372;8.166;2023-02-15T09:36:20;8.00;;;5.63;;
14100;SDS011;7127;49.372;8.166;2023-02-15T09:38:52;8.23;;;6.43;;
14100;SDS011;7127;49.372;8.166;2023-02-15T09:41:36;7.93;;;5.73;;
14100;SDS011;7127;49.372;8.166;2023-02-15T09:44:32;7.53;;;5.80;;
14100;SDS011;7127;49.372;8.166;2023-02-15T09:47:12;9.77;;;7.20;;
14100;SDS011;7127;49.372;8.166;2023-02-15T09:49:52;7.20;;;6.07;;
14100;SDS011;7127;49.372;8.166;2023-02-15T09:52:32;7.13;;;5.90;;
14100;SDS011;7127;49.372;8.166;2023-02-15T09:58:01;8.13;;;6.00;;
14100;SDS011;7127;49.372;8.166;2023-02-15T10:00:36;8.73;;;6.97;;
14100;SDS011;7127;49.372;8.166;2023-02-15T10:03:15;8.17;;;5.80;;
14100;SDS011;7127;49.372;8.166;2023-02-15T10:05:55;6.33;;;5.47;;
14100;SDS011;7127;49.372;8.166;2023-02-15T10:08:35;7.07;;;5.57;;
14100;SDS011;7127;49.372;8.166;2023-02-15T10:11:20;6.27;;;5.40;;
14100;SDS011;7127;49.372;8.166;2023-02-15T10:14:13;6.57;;;5.40;;
14100;SDS011;7127;49.372;8.166;2023-02-15T10:16:54;6.90;;;5.53;;
14100;SDS011;7127;49.372;8.166;2023-02-15T10:19:31;6.60;;;5.43;;
14100;SDS011;7127;49.372;8.166;2023-02-15T10:22:07;6.60;;;5.20;;
14100;SDS011;7127;49.372;8.166;2023-02-15T10:24:51;5.70;;;4.60;;
14100;SDS011;7127;49.372;8.166;2023-02-15T10:27:28;5.53;;;4.50;;
14100;SDS011;7127;49.372;8.166;2023-02-15T10:30:06;6.77;;;5.27;;
14100;SDS011;7127;49.372;8.166;2023-02-15T10:32:37;6.60;;;5.90;;
14100;SDS011;7127;49.372;8.166;2023-02-15T10:35:11;7.13;;;5.67;;
14100;SDS011;7127;49.372;8.166;2023-02-15T10:37:46;7.37;;;5.47;;
14100;SDS011;7127;49.372;8.166;2023-02-15T10:40:25;6.23;;;4.90;;
14100;SDS011;7127;49.372;8.166;2023-02-15T10:42:59;6.30;;;5.03;;
14100;SDS011;7127;49.372;8.166;2023-02-15T10:45:43;7.50;;;6.30;;
14100;SDS011;7127;49.372;8.166;2023-02-15T10:48:34;7.57;;;6.13;;
14100;SDS011;7127;49.372;8.166;2023-02-15T10:51:17;8.40;;;6.30;;
14100;SDS011;7127;49.372;8.166;2023-02-15T10:53:58;6.37;;;5.57;;
14100;SDS011;7127;49.372;8.166;2023-02-15T10:56:36;7.50;;;6.03;;
14100;SDS011;7127;49.372;8.166;2023-02-15T10:59:12;8.03;;;6.00;;
14100;SDS011;7127;49.372;8.166;2023-02-15T11:01:58;6.27;;;5.40;;
14100;SDS011;7127;49.372;8.166;2023-02-15T11:04:33;5.77;;;4.90;;
14100;SDS011;7127;49.372;8.166;2023-02-15T11:07:15;6.30;;;4.83;;
14100;SDS011;7127;49.372;8.166;2023-02-15T11:09:47;6.13;;;5.00;;
14100;SDS011;7127;49.372;8.166;2023-02-15T11:12:19;6.70;;;5.47;;
14100;SDS011;7127;49.372;8.166;2023-02-15T11:14:49;7.30;;;5.90;;
14100;SDS011;7127;49.372;8.166;2023-02-15T11:17:22;7.63;;;6.20;;
14100;SDS011;7127;49.372;8.166;2023-02-15T11:19:55;6.83;;;5.90;;
14100;SDS011;7127;49.372;8.166;2023-02-15T11:22:27;9.33;;;5.77;;
14100;SDS011;7127;49.372;8.166;2023-02-15T11:24:56;8.00;;;6.50;;
14100;SDS011;7127;49.372;8.166;2023-02-15T11:27:26;8.63;;;6.60;;
14100;SDS011;7127;49.372;8.166;2023-02-15T11:29:58;7.93;;;6.43;;
14100;SDS011;7127;49.372;8.166;2023-02-15T11:32:30;8.20;;;6.57;;
14100;SDS011;7127;49.372;8.166;2023-02-15T11:35:00;7.50;;;6.17;;
14100;SDS011;7127;49.372;8.166;2023-02-15T11:37:35;9.30;;;6.80;;
14100;SDS011;7127;49.372;8.166;2023-02-15T11:40:15;7.80;;;5.70;;
14100;SDS011;7127;49.372;8.166;2023-02-15T11:42:47;8.30;;;6.43;;
14100;SDS011;7127;49.372;8.166;2023-02-15T11:45:19;8.10;;;6.77;;
14100;SDS011;7127;49.372;8.166;2023-02-15T11:47:53;8.43;;;6.80;;
14100;SDS011;7127;49.372;8.166;2023-02-15T11:50:22;9.20;;;7.23;;
14100;SDS011;7127;49.372;8.166;2023-02-15T11:52:50;8.20;;;6.67;;
14100;SDS011;7127;49.372;8.166;2023-02-15T11:55:21;7.90;;;6.57;;
14100;SDS011;7127;49.372;8.166;2023-02-15T11:57:51;8.00;;;6.70;;
14100;SDS011;7127;49.372;8.166;2023-02-15T12:00:24;6.83;;;5.53;;
14100;SDS011;7127;49.372;8.166;2023-02-15T12:03:02;7.93;;;6.10;;
14100;SDS011;7127;49.372;8.166;2023-02-15T12:05:39;7.90;;;6.47;;
14100;SDS011;7127;49.372;8.166;2023-02-15T12:08:12;8.63;;;7.13;;
14100;SDS011;7127;49.372;8.166;2023-02-15T12:11:00;9.43;;;7.17;;
14100;SDS011;7127;49.372;8.166;2023-02-15T12:13:32;11.07;;;7.77;;
14100;SDS011;7127;49.372;8.166;2023-02-15T12:16:04;9.03;;;7.23;;
14100;SDS011;7127;49.372;8.166;2023-02-15T12:18:36;10.50;;;7.90;;
14100;SDS011;7127;49.372;8.166;2023-02-15T12:21:05;9.43;;;7.13;;
14100;SDS011;7127;49.372;8.166;2023-02-15T12:23:39;8.83;;;7.13;;
14100;SDS011;7127;49.372;8.166;2023-02-15T12:26:10;9.57;;;8.00;;
14100;SDS011;7127;49.372;8.166;2023-02-15T12:28:38;10.37;;;7.47;;
14100;SDS011;7127;49.372;8.166;2023-02-15T12:31:10;8.73;;;7.27;;
14100;SDS011;7127;49.372;8.166;2023-02-15T12:33:47;10.43;;;7.50;;
14100;SDS011;7127;49.372;8.166;2023-02-15T12:36:17;10.17;;;8.07;;
14100;SDS011;7127;49.372;8.166;2023-02-15T12:41:43;8.93;;;6.87;;
14100;SDS011;7127;49.372;8.166;2023-02-15T12:44:15;9.90;;;7.70;;
14100;SDS011;7127;49.372;8.166;2023-02-15T12:46:47;11.37;;;8.97;;
14100;SDS011;7127;49.372;8.166;2023-02-15T12:49:25;10.30;;;7.70;;
14100;SDS011;7127;49.372;8.166;2023-02-15T12:51:54;12.50;;;8.77;;
14100;SDS011;7127;49.372;8.166;2023-02-15T12:54:32;11.43;;;8.60;;
14100;SDS011;7127;49.372;8.166;2023-02-15T12:57:15;10.63;;;8.60;;
14100;SDS011;7127;49.372;8.166;2023-02-15T12:59:49;11.43;;;8.00;;
14100;SDS011;7127;49.372;8.166;2023-02-15T13:02:20;10.40;;;8.57;;
14100;SDS011;7127;49.372;8.166;2023-02-15T13:04:51;10.90;;;8.13;;
14100;SDS011;7127;49.372;8.166;2023-02-15T13:07:19;11.70;;;8.93;;
14100;SDS011;7127;49.372;8.166;2023-02-15T13:09:48;11.07;;;8.23;;
14100;SDS011;7127;49.372;8.166;2023-02-15T13:12:17;11.13;;;8.73;;
14100;SDS011;7127;49.372;8.166;2023-02-15T13:14:47;9.13;;;8.03;;
14100;SDS011;7127;49.372;8.166;2023-02-15T13:17:17;9.43;;;7.57;;
14100;SDS011;7127;49.372;8.166;2023-02-15T13:19:51;12.70;;;9.20;;
14100;SDS011;7127;49.372;8.166;2023-02-15T13:22:20;11.63;;;8.90;;
14100;SDS011;7127;49.372;8.166;2023-02-15T13:24:53;11.57;;;8.50;;
14100;SDS011;7127;49.372;8.166;2023-02-15T13:27:23;13.40;;;9.87;;
14100;SDS011;7127;49.372;8.166;2023-02-15T13:30:10;11.97;;;9.30;;
14100;SDS011;7127;49.372;8.166;2023-02-15T13:32:45;11.17;;;8.77;;
14100;SDS011;7127;49.372;8.166;2023-02-15T13:35:17;11.63;;;8.77;;
14100;SDS011;7127;49.372;8.166;2023-02-15T13:37:54;11.83;;;8.87;;
14100;SDS011;7127;49.372;8.166;2023-02-15T13:40:30;11.17;;;8.30;;
14100;SDS011;7127;49.372;8.166;2023-02-15T13:43:02;10.03;;;7.83;;
14100;SDS011;7127;49.372;8.166;2023-02-15T13:45:42;11.03;;;8.77;;
14100;SDS011;7127;49.372;8.166;2023-02-15T13:48:23;10.27;;;8.53;;
14100;SDS011;7127;49.372;8.166;2023-02-15T13:51:03;10.80;;;8.23;;
14100;SDS011;7127;49.372;8.166;2023-02-15T13:56:33;11.27;;;8.93;;
14100;SDS011;7127;49.372;8.166;2023-02-15T13:59:13;11.40;;;8.73;;
14100;SDS011;7127;49.372;8.166;2023-02-15T14:01:58;13.13;;;9.60;;
14100;SDS011;7127;49.372;8.166;2023-02-15T14:04:50;11.10;;;8.97;;
14100;SDS011;7127;49.372;8.166;2023-02-15T14:07:32;10.93;;;8.70;;
14100;SDS011;7127;49.372;8.166;2023-02-15T14:10:29;12.93;;;9.23;;
14100;SDS011;7127;49.372;8.166;2023-02-15T14:16:17;9.80;;;7.77;;
14100;SDS011;7127;49.372;8.166;2023-02-15T14:18:54;11.73;;;8.83;;
14100;SDS011;7127;49.372;8.166;2023-02-15T14:21:30;11.30;;;8.63;;
14100;SDS011;7127;49.372;8.166;2023-02-15T14:24:09;13.13;;;10.47;;
14100;SDS011;7127;49.372;8.166;2023-02-15T14:26:56;13.87;;;9.87;;
14100;SDS011;7127;49.372;8.166;2023-02-15T14:29:38;11.77;;;9.43;;
14100;SDS011;7127;49.372;8.166;2023-02-15T14:32:13;11.47;;;9.10;;
14100;SDS011;7127;49.372;8.166;2023-02-15T14:34:47;11.77;;;9.80;;
14100;SDS011;7127;49.372;8.166;2023-02-15T14:37:19;11.97;;;9.00;;
14100;SDS011;7127;49.372;8.166;2023-02-15T14:39:55;11.03;;;8.80;;
14100;SDS011;7127;49.372;8.166;2023-02-15T14:42:49;11.63;;;8.87;;
14100;SDS011;7127;49.372;8.166;2023-02-15T14:45:30;11.37;;;8.73;;
14100;SDS011;7127;49.372;8.166;2023-02-15T14:48:25;10.43;;;8.27;;
14100;SDS011;7127;49.372;8.166;2023-02-15T14:51:04;10.90;;;8.43;;
14100;SDS011;7127;49.372;8.166;2023-02-15T14:53:32;10.57;;;8.37;;
14100;SDS011;7127;49.372;8.166;2023-02-15T14:59:18;10.27;;;8.37;;
14100;SDS011;7127;49.372;8.166;2023-02-15T15:01:55;11.10;;;8.93;;
14100;SDS011;7127;49.372;8.166;2023-02-15T15:04:26;12.50;;;9.20;;
14100;SDS011;7127;49.372;8.166;2023-02-15T15:07:03;10.47;;;8.30;;
14100;SDS011;7127;49.372;8.166;2023-02-15T15:09:40;10.80;;;8.43;;
14100;SDS011;7127;49.372;8.166;2023-02-15T15:12:15;11.40;;;9.20;;
14100;SDS011;7127;49.372;8.166;2023-02-15T15:14:57;13.73;;;9.73;;
14100;SDS011;7127;49.372;8.166;2023-02-15T15:26:21;11.53;;;9.10;;
14100;SDS011;7127;49.372;8.166;2023-02-15T15:28:55;11.10;;;9.10;;
14100;SDS011;7127;49.372;8.166;2023-02-15T15:31:24;12.27;;;9.60;;
14100;SDS011;7127;49.372;8.166;2023-02-15T15:40:35;11.67;;;8.23;;
14100;SDS011;7127;49.372;8.166;2023-02-15T15:43:30;11.80;;;9.13;;
14100;SDS011;7127;49.372;8.166;2023-02-15T15:46:13;11.40;;;8.27;;
14100;SDS011;7127;49.372;8.166;2023-02-15T15:49:05;10.97;;;8.97;;
14100;SDS011;7127;49.372;8.166;2023-02-15T15:51:38;9.50;;;7.70;;
14100;SDS011;7127;49.372;8.166;2023-02-15T15:54:11;16.88;;;15.07;;
14100;SDS011;7127;49.372;8.166;2023-02-15T15:56:41;13.67;;;11.60;;
14100;SDS011;7127;49.372;8.166;2023-02-15T15:59:14;15.13;;;10.13;;
14100;SDS011;7127;49.372;8.166;2023-02-15T16:01:46;12.13;;;9.57;;